DAL897 CYVR-KSEA
Flight info
| Callsign | DAL897 |
|---|---|
| Flight time | 0h 27m |
| Altitude | 15000 |
| Route | ROESH MARNR8 |
| Aircraft | A339/H-SADE1E2E3GHIJ3J5M1P2RWXY/LB2D1 |
Departure
| Time | 2026-05-08 02:13 |
|---|---|
| Airport | Vancouver International Airport (CYVR) |
Arrival
| Time | 2026-05-08 02:40 |
|---|---|
| Airport | Seattle–Tacoma International Airport (KSEA) |
| Time | Latitude | Longitude | Altitude | Speed | Heading |
|---|---|---|---|---|---|
| 2026-05-08 01:51 | 49.19163 | -123.18098 | 25 ft | 0 kts | 11° |
| 2026-05-08 02:00 | 49.19149 | -123.18102 | 26 ft | 2 kts | 22° |
| 2026-05-08 02:01 | 49.19135 | -123.18115 | 24 ft | 2 kts | 53° |
| 2026-05-08 02:01 | 49.19127 | -123.18136 | 26 ft | 2 kts | 61° |
| 2026-05-08 02:01 | 49.19120 | -123.18158 | 25 ft | 2 kts | 75° |
| 2026-05-08 02:01 | 49.19118 | -123.18175 | 24 ft | 0 kts | 101° |
| 2026-05-08 02:04 | 49.19115 | -123.18156 | 24 ft | 3 kts | 101° |
| 2026-05-08 02:04 | 49.19113 | -123.18143 | 25 ft | 2 kts | 106° |
| 2026-05-08 02:05 | 49.19109 | -123.18131 | 25 ft | 2 kts | 116° |
| 2026-05-08 02:05 | 49.19097 | -123.18096 | 26 ft | 5 kts | 116° |
| 2026-05-08 02:05 | 49.19084 | -123.18073 | 26 ft | 2 kts | 139° |
| 2026-05-08 02:05 | 49.19069 | -123.18059 | 26 ft | 4 kts | 146° |
| 2026-05-08 02:06 | 49.19046 | -123.18052 | 24 ft | 3 kts | 176° |
| 2026-05-08 02:06 | 49.19020 | -123.18053 | 25 ft | 4 kts | 185° |
| 2026-05-08 02:06 | 49.18983 | -123.18060 | 25 ft | 7 kts | 187° |
| 2026-05-08 02:06 | 49.18938 | -123.18046 | 23 ft | 7 kts | 151° |
| 2026-05-08 02:07 | 49.18909 | -123.17979 | 25 ft | 9 kts | 109° |
| 2026-05-08 02:07 | 49.18894 | -123.17878 | 22 ft | 11 kts | 100° |
| 2026-05-08 02:07 | 49.18879 | -123.17755 | 24 ft | 13 kts | 100° |
| 2026-05-08 02:07 | 49.18861 | -123.17602 | 25 ft | 16 kts | 100° |
| 2026-05-08 02:08 | 49.18840 | -123.17428 | 23 ft | 18 kts | 100° |
| 2026-05-08 02:08 | 49.18817 | -123.17234 | 24 ft | 19 kts | 99° |
| 2026-05-08 02:08 | 49.18795 | -123.17028 | 23 ft | 20 kts | 98° |
| 2026-05-08 02:08 | 49.18771 | -123.16815 | 23 ft | 21 kts | 100° |
| 2026-05-08 02:09 | 49.18744 | -123.16582 | 25 ft | 23 kts | 99° |
| 2026-05-08 02:09 | 49.18709 | -123.16344 | 27 ft | 23 kts | 114° |
| 2026-05-08 02:09 | 49.18658 | -123.16235 | 27 ft | 0 kts | 139° |
| 2026-05-08 02:10 | 49.18657 | -123.16233 | 27 ft | 1 kts | 140° |
| 2026-05-08 02:10 | 49.18644 | -123.16220 | 27 ft | 3 kts | 146° |
| 2026-05-08 02:11 | 49.18607 | -123.16202 | 26 ft | 6 kts | 170° |
| 2026-05-08 02:11 | 49.18568 | -123.16203 | 26 ft | 5 kts | 188° |
| 2026-05-08 02:11 | 49.18533 | -123.16224 | 25 ft | 6 kts | 207° |
| 2026-05-08 02:11 | 49.18508 | -123.16265 | 26 ft | 4 kts | 243° |
| 2026-05-08 02:12 | 49.18505 | -123.16298 | 26 ft | 3 kts | 265° |
| 2026-05-08 02:12 | 49.18506 | -123.16335 | 26 ft | 4 kts | 272° |
| 2026-05-08 02:12 | 49.18524 | -123.16531 | 21 ft | 54 kts | 279° |
| 2026-05-08 02:12 | 49.18638 | -123.17553 | 27 ft | 137 kts | 279° |
| 2026-05-08 02:13 | 49.18834 | -123.19315 | 306 ft | 189 kts | 279° |
| 2026-05-08 02:13 | 49.19065 | -123.21331 | 1505 ft | 178 kts | 278° |
| 2026-05-08 02:13 | 49.19266 | -123.23062 | 1748 ft | 158 kts | 278° |
| 2026-05-08 02:13 | 49.19457 | -123.24636 | 1668 ft | 148 kts | 277° |
| 2026-05-08 02:14 | 49.19657 | -123.26173 | 1476 ft | 142 kts | 279° |
| 2026-05-08 02:14 | 49.19855 | -123.27742 | 1681 ft | 172 kts | 277° |
| 2026-05-08 02:14 | 49.20105 | -123.29961 | 1387 ft | 255 kts | 277° |
| 2026-05-08 02:14 | 49.20443 | -123.32920 | 1765 ft | 301 kts | 278° |
| 2026-05-08 02:15 | 49.20814 | -123.36286 | 1579 ft | 335 kts | 278° |
| 2026-05-08 02:15 | 49.21201 | -123.39826 | 1774 ft | 328 kts | 278° |
| 2026-05-08 02:15 | 49.21508 | -123.42813 | 4486 ft | 287 kts | 279° |
| 2026-05-08 02:15 | 49.21850 | -123.46257 | 4260 ft | 355 kts | 278° |
| 2026-05-08 02:16 | 49.22213 | -123.50131 | 5031 ft | 379 kts | 278° |
| 2026-05-08 02:16 | 49.22612 | -123.54402 | 4288 ft | 438 kts | 278° |
| 2026-05-08 02:16 | 49.23056 | -123.59113 | 5802 ft | 417 kts | 278° |
| 2026-05-08 02:16 | 49.23270 | -123.63151 | 9366 ft | 369 kts | 269° |
| 2026-05-08 02:17 | 49.22716 | -123.66868 | 11286 ft | 341 kts | 243° |
| 2026-05-08 02:17 | 49.21651 | -123.69782 | 13704 ft | 304 kts | 239° |
| 2026-05-08 02:17 | 49.20336 | -123.72378 | 14417 ft | 312 kts | 223° |
| 2026-05-08 02:17 | 49.18638 | -123.74494 | 15092 ft | 324 kts | 216° |
| 2026-05-08 02:18 | 49.16504 | -123.76137 | 14990 ft | 360 kts | 199° |
| 2026-05-08 02:18 | 49.13992 | -123.77072 | 15263 ft | 385 kts | 189° |
| 2026-05-08 02:18 | 49.11214 | -123.76922 | 15095 ft | 423 kts | 171° |
| 2026-05-08 02:18 | 49.08322 | -123.75574 | 15289 ft | 448 kts | 158° |
| 2026-05-08 02:19 | 49.05613 | -123.72808 | 14789 ft | 491 kts | 137° |
| 2026-05-08 02:19 | 49.03367 | -123.68853 | 15594 ft | 494 kts | 130° |
| 2026-05-08 02:19 | 49.01117 | -123.64772 | 15320 ft | 518 kts | 132° |
| 2026-05-08 02:19 | 48.98681 | -123.60821 | 16539 ft | 468 kts | 136° |
| 2026-05-08 02:20 | 48.96464 | -123.57513 | 18442 ft | 451 kts | 137° |
| 2026-05-08 02:20 | 48.94206 | -123.53748 | 17739 ft | 497 kts | 131° |
| 2026-05-08 02:20 | 48.92073 | -123.49681 | 18847 ft | 496 kts | 130° |
| 2026-05-08 02:20 | 48.89737 | -123.45547 | 17409 ft | 538 kts | 134° |
| 2026-05-08 02:21 | 48.87054 | -123.41547 | 17897 ft | 532 kts | 138° |
| 2026-05-08 02:21 | 48.84355 | -123.37762 | 16689 ft | 530 kts | 139° |
| 2026-05-08 02:21 | 48.81610 | -123.34029 | 13459 ft | 540 kts | 139° |
| 2026-05-08 02:21 | 48.78777 | -123.30187 | 12573 ft | 545 kts | 139° |
| 2026-05-08 02:22 | 48.75970 | -123.26320 | 12019 ft | 545 kts | 138° |
| 2026-05-08 02:22 | 48.73443 | -123.22086 | 11955 ft | 542 kts | 128° |
| 2026-05-08 02:22 | 48.71385 | -123.17503 | 13849 ft | 511 kts | 124° |
| 2026-05-08 02:22 | 48.69486 | -123.13107 | 15206 ft | 485 kts | 124° |
| 2026-05-08 02:23 | 48.67586 | -123.08939 | 15255 ft | 471 kts | 127° |
| 2026-05-08 02:23 | 48.65474 | -123.05257 | 14893 ft | 447 kts | 138° |
| 2026-05-08 02:23 | 48.63011 | -123.02533 | 15318 ft | 444 kts | 150° |
| 2026-05-08 02:23 | 48.60148 | -123.00855 | 14793 ft | 446 kts | 169° |
| 2026-05-08 02:24 | 48.57192 | -123.00235 | 15284 ft | 416 kts | 174° |
| 2026-05-08 02:24 | 48.54379 | -122.99564 | 14365 ft | 415 kts | 169° |
| 2026-05-08 02:24 | 48.51621 | -122.98517 | 14782 ft | 389 kts | 166° |
| 2026-05-08 02:24 | 48.48898 | -122.97561 | 14503 ft | 420 kts | 169° |
| 2026-05-08 02:25 | 48.45961 | -122.97006 | 13491 ft | 428 kts | 176° |
| 2026-05-08 02:25 | 48.42987 | -122.96914 | 12490 ft | 428 kts | 182° |
| 2026-05-08 02:25 | 48.41022 | -122.97002 | 12081 ft | 421 kts | 181° |
| 2026-05-08 02:25 | 48.37167 | -122.96639 | 11639 ft | 423 kts | 172° |
| 2026-05-08 02:26 | 48.34350 | -122.95462 | 11010 ft | 416 kts | 160° |
| 2026-05-08 02:26 | 48.31729 | -122.93762 | 11025 ft | 402 kts | 157° |
| 2026-05-08 02:26 | 48.29990 | -122.92669 | 11266 ft | 415 kts | 159° |
| 2026-05-08 02:26 | 48.27219 | -122.91254 | 10901 ft | 420 kts | 166° |
| 2026-05-08 02:27 | 48.24340 | -122.90492 | 11147 ft | 421 kts | 173° |
| 2026-05-08 02:27 | 48.21387 | -122.89980 | 11827 ft | 428 kts | 174° |
| 2026-05-08 02:27 | 48.18443 | -122.89286 | 12063 ft | 443 kts | 170° |
| 2026-05-08 02:27 | 48.15480 | -122.88277 | 12139 ft | 414 kts | 167° |
| 2026-05-08 02:28 | 48.12696 | -122.87342 | 12564 ft | 426 kts | 169° |
| 2026-05-08 02:28 | 48.09723 | -122.86590 | 11593 ft | 432 kts | 173° |
| 2026-05-08 02:28 | 48.06895 | -122.85896 | 11858 ft | 395 kts | 170° |
| 2026-05-08 02:28 | 48.04285 | -122.84593 | 9213 ft | 399 kts | 154° |
| 2026-05-08 02:29 | 48.02081 | -122.81679 | 7913 ft | 423 kts | 129° |
| 2026-05-08 02:29 | 48.00478 | -122.78051 | 7022 ft | 419 kts | 122° |
| 2026-05-08 02:29 | 47.99067 | -122.74214 | 6166 ft | 415 kts | 117° |
| 2026-05-08 02:29 | 47.97937 | -122.70532 | 6775 ft | 379 kts | 114° |
| 2026-05-08 02:30 | 47.97035 | -122.66810 | 5981 ft | 380 kts | 108° |
| 2026-05-08 02:30 | 47.96308 | -122.63143 | 5889 ft | 358 kts | 107° |
| 2026-05-08 02:30 | 47.95490 | -122.59741 | 5749 ft | 338 kts | 112° |
| 2026-05-08 02:30 | 47.94639 | -122.56607 | 5883 ft | 312 kts | 111° |
| 2026-05-08 02:31 | 47.93956 | -122.53667 | 5984 ft | 291 kts | 109° |
| 2026-05-08 02:31 | 47.93339 | -122.50888 | 5993 ft | 282 kts | 110° |
| 2026-05-08 02:31 | 47.92539 | -122.48257 | 5951 ft | 278 kts | 126° |
| 2026-05-08 02:31 | 47.91069 | -122.46480 | 5945 ft | 267 kts | 158° |
| 2026-05-08 02:32 | 47.89365 | -122.45735 | 5993 ft | 243 kts | 168° |
| 2026-05-08 02:32 | 47.87777 | -122.45073 | 6019 ft | 237 kts | 162° |
| 2026-05-08 02:32 | 47.86238 | -122.44245 | 6014 ft | 232 kts | 162° |
| 2026-05-08 02:32 | 47.84685 | -122.43575 | 6000 ft | 231 kts | 168° |
| 2026-05-08 02:33 | 47.83124 | -122.43028 | 6001 ft | 230 kts | 166° |
| 2026-05-08 02:33 | 47.81608 | -122.42316 | 6009 ft | 231 kts | 161° |
| 2026-05-08 02:33 | 47.80089 | -122.41536 | 5998 ft | 231 kts | 164° |
| 2026-05-08 02:33 | 47.78540 | -122.40917 | 6000 ft | 230 kts | 167° |
| 2026-05-08 02:34 | 47.76971 | -122.40291 | 6006 ft | 229 kts | 162° |
| 2026-05-08 02:34 | 47.75543 | -122.39257 | 6018 ft | 230 kts | 151° |
| 2026-05-08 02:34 | 47.74144 | -122.38080 | 6012 ft | 230 kts | 155° |
| 2026-05-08 02:34 | 47.72678 | -122.37177 | 5999 ft | 230 kts | 161° |
| 2026-05-08 02:35 | 47.71199 | -122.36267 | 5992 ft | 230 kts | 155° |
| 2026-05-08 02:35 | 47.69790 | -122.35116 | 5999 ft | 230 kts | 152° |
| 2026-05-08 02:35 | 47.68397 | -122.34041 | 5907 ft | 224 kts | 157° |
| 2026-05-08 02:35 | 47.66960 | -122.33163 | 5673 ft | 218 kts | 159° |
| 2026-05-08 02:36 | 47.65567 | -122.32231 | 4893 ft | 220 kts | 153° |
| 2026-05-08 02:36 | 47.64208 | -122.31385 | 4163 ft | 212 kts | 172° |
| 2026-05-08 02:36 | 47.62721 | -122.31520 | 3802 ft | 210 kts | 193° |
| 2026-05-08 02:36 | 47.61298 | -122.31892 | 3545 ft | 209 kts | 183° |
| 2026-05-08 02:37 | 47.59880 | -122.31735 | 3042 ft | 203 kts | 171° |
| 2026-05-08 02:37 | 47.58499 | -122.31492 | 2680 ft | 193 kts | 182° |
| 2026-05-08 02:37 | 47.57111 | -122.31707 | 2508 ft | 208 kts | 189° |
| 2026-05-08 02:37 | 47.55705 | -122.31875 | 2217 ft | 197 kts | 178° |
| 2026-05-08 02:38 | 47.54357 | -122.31684 | 2038 ft | 185 kts | 174° |
| 2026-05-08 02:38 | 47.53168 | -122.31645 | 1720 ft | 160 kts | 183° |
| 2026-05-08 02:38 | 47.52082 | -122.31733 | 1398 ft | 150 kts | 182° |
| 2026-05-08 02:38 | 47.51061 | -122.31764 | 1071 ft | 145 kts | 180° |
| 2026-05-08 02:39 | 47.50077 | -122.31759 | 894 ft | 142 kts | 180° |
| 2026-05-08 02:39 | 47.49099 | -122.31746 | 735 ft | 139 kts | 180° |
| 2026-05-08 02:39 | 47.48139 | -122.31729 | 595 ft | 138 kts | 181° |
| 2026-05-08 02:39 | 47.47181 | -122.31748 | 515 ft | 137 kts | 184° |
| 2026-05-08 02:40 | 47.46219 | -122.31791 | 396 ft | 138 kts | 181° |
| 2026-05-08 02:40 | 47.45290 | -122.31818 | 396 ft | 125 kts | 181° |
| 2026-05-08 02:40 | 47.44673 | -122.31817 | 394 ft | 49 kts | 178° |
| 2026-05-08 02:40 | 47.44480 | -122.31804 | 393 ft | 7 kts | 171° |
| 2026-05-08 02:41 | 47.44437 | -122.31794 | 395 ft | 9 kts | 171° |
| 2026-05-08 02:41 | 47.44358 | -122.31771 | 395 ft | 13 kts | 161° |
| 2026-05-08 02:41 | 47.44264 | -122.31713 | 396 ft | 16 kts | 153° |
| 2026-05-08 02:41 | 47.44153 | -122.31621 | 394 ft | 21 kts | 150° |
| 2026-05-08 02:42 | 47.44018 | -122.31509 | 394 ft | 24 kts | 150° |
| 2026-05-08 02:42 | 47.43926 | -122.31429 | 396 ft | 5 kts | 142° |
| 2026-05-08 02:42 | 47.43894 | -122.31397 | 396 ft | 7 kts | 149° |
| 2026-05-08 02:42 | 47.43850 | -122.31351 | 395 ft | 8 kts | 131° |
| 2026-05-08 02:43 | 47.43823 | -122.31268 | 394 ft | 11 kts | 108° |
| 2026-05-08 02:43 | 47.43811 | -122.31146 | 396 ft | 14 kts | 92° |
| 2026-05-08 02:43 | 47.43810 | -122.30981 | 396 ft | 19 kts | 90° |
| 2026-05-08 02:43 | 47.43808 | -122.30765 | 396 ft | 23 kts | 91° |
| 2026-05-08 02:44 | 47.43753 | -122.30635 | 395 ft | 12 kts | 149° |
| 2026-05-08 02:44 | 47.43706 | -122.30563 | 393 ft | 8 kts | 106° |
| 2026-05-08 02:44 | 47.43712 | -122.30478 | 396 ft | 10 kts | 78° |
| 2026-05-08 02:44 | 47.43721 | -122.30361 | 396 ft | 13 kts | 87° |
| 2026-05-08 02:45 | 47.43739 | -122.30246 | 395 ft | 10 kts | 62° |
| 2026-05-08 02:45 | 47.43780 | -122.30216 | 393 ft | 6 kts | 11° |
| 2026-05-08 02:45 | 47.43807 | -122.30212 | 395 ft | 0 kts | 4° |